KSNA/SNA METAR and TAF weather

Enter ICAO airport designator
Station Type Date Time Source
KSNA METAR 2019/02/22 21:53 UTC NOAA

KSNA 222153Z 25008KT 10SM FEW065 FEW200 14/M03 A3002 RMK AO2 SLP164 T01441028


Station Type Date Time Source
KSNA Decoded METAR 2019/02/22 21:53 UTC NOAA

SANTA ANA WAYNE ORANGE CTY, CA, United States (KSNA) 33-41N 117-52W 15M
Feb 22, 2019 - 04:53 PM EST / 2019.02.22 2153 UTC
Wind: from the WSW (250 degrees) at 9 MPH (8 KT):0
Visibility: 10 mile(s):0
Sky conditions: mostly clear
Temperature: 57.9 F (14.4 C)
Dew Point: 27.0 F (-2.8 C)
Relative Humidity: 30%
Pressure (altimeter): 30.02 in. Hg (1016 hPa)
ob: KSNA 222153Z 25008KT 10SM FEW065 FEW200 14/M03 A3002 RMK AO2 SLP164 T01441028
cycle: 22

Station Type Date Time Source
KSNA TAF 2019/02/22 18:22 UTC NOAA

TAF KSNA 221720Z 2218/2318 VRB04KT P6SM FEW100
FM222000 23008KT P6SM SKC
FM230200 VRB04KT P6SM SKC


Example: see airport list